createdAt,value
2023-02-11T00:00:42.127Z,21.13
2023-02-11T00:03:10.653Z,21.10
2023-02-11T00:05:38.875Z,21.90
2023-02-11T00:08:06.838Z,20.17
2023-02-11T00:10:34.722Z,21.33
2023-02-11T00:13:02.810Z,21.00
2023-02-11T00:15:30.637Z,20.23
2023-02-11T00:18:00.099Z,20.43
2023-02-11T00:20:28.031Z,19.77
2023-02-11T00:22:55.937Z,20.17
2023-02-11T00:25:23.865Z,19.50
2023-02-11T00:27:51.820Z,19.20
2023-02-11T00:30:19.857Z,20.00
2023-02-11T00:32:47.830Z,19.60
2023-02-11T00:35:17.687Z,19.60
2023-02-11T00:37:45.680Z,18.73
2023-02-11T00:40:16.151Z,19.73
2023-02-11T00:42:44.260Z,19.27
2023-02-11T00:45:12.953Z,18.83
2023-02-11T00:47:40.869Z,18.87
2023-02-11T00:50:08.909Z,19.93
2023-02-11T00:52:38.212Z,18.27
2023-02-11T00:55:06.965Z,19.27
2023-02-11T00:57:34.947Z,17.90
2023-02-11T01:00:02.961Z,17.30
2023-02-11T01:02:33.962Z,18.47
2023-02-11T01:05:02.395Z,18.20
2023-02-11T01:07:30.494Z,19.20
2023-02-11T01:10:00.006Z,18.30
2023-02-11T01:12:30.957Z,16.90
2023-02-11T01:14:59.461Z,17.27
2023-02-11T01:17:27.427Z,16.97
2023-02-11T01:19:55.287Z,17.50
2023-02-11T01:22:23.177Z,17.10
2023-02-11T01:24:51.013Z,18.17
2023-02-11T01:27:20.396Z,16.83
2023-02-11T01:29:48.274Z,16.77
2023-02-11T01:32:16.193Z,17.50
2023-02-11T01:34:44.134Z,17.13
2023-02-11T01:37:16.759Z,17.57
2023-02-11T01:39:44.601Z,16.87
2023-02-11T01:42:17.003Z,16.60
2023-02-11T01:44:46.340Z,17.00
2023-02-11T01:47:14.269Z,16.57
2023-02-11T01:49:45.815Z,16.67
2023-02-11T01:52:19.640Z,17.30
2023-02-11T01:55:09.542Z,17.17
2023-02-11T01:57:40.626Z,16.60
2023-02-11T02:00:14.973Z,16.80
2023-02-11T02:02:50.582Z,17.20
2023-02-11T02:05:28.068Z,17.67
2023-02-11T02:08:04.921Z,16.10
2023-02-11T02:10:36.612Z,16.07
2023-02-11T02:13:04.643Z,16.27
2023-02-11T02:15:36.065Z,16.50
2023-02-11T02:18:30.588Z,17.50
2023-02-11T02:21:46.249Z,16.47
2023-02-11T02:24:38.970Z,16.27
2023-02-11T02:27:28.597Z,15.40
2023-02-11T02:30:19.511Z,15.23
2023-02-11T02:32:58.738Z,15.70
2023-02-11T02:35:35.156Z,15.27
2023-02-11T02:38:08.023Z,15.20
2023-02-11T02:40:41.266Z,15.33
2023-02-11T02:43:12.134Z,15.50
2023-02-11T02:45:40.060Z,15.20
2023-02-11T02:48:26.067Z,14.63
2023-02-11T02:51:04.098Z,15.07
2023-02-11T02:53:43.306Z,14.93
2023-02-11T02:56:19.827Z,14.67
2023-02-11T02:59:03.703Z,15.37
2023-02-11T03:01:42.994Z,15.53
2023-02-11T03:04:22.156Z,15.50
2023-02-11T03:06:56.202Z,15.50
2023-02-11T03:09:29.305Z,15.77
2023-02-11T03:11:57.556Z,15.20
2023-02-11T03:14:29.280Z,15.43
2023-02-11T03:17:02.739Z,14.90
2023-02-11T03:19:37.532Z,14.90
2023-02-11T03:22:14.307Z,14.67
2023-02-11T03:24:43.081Z,16.13
2023-02-11T03:27:19.287Z,16.00
2023-02-11T03:29:54.576Z,14.57
2023-02-11T03:32:28.648Z,15.17
2023-02-11T03:35:02.326Z,15.87
2023-02-11T03:37:34.822Z,15.73
2023-02-11T03:40:06.430Z,15.43
2023-02-11T03:42:39.987Z,14.83
2023-02-11T03:45:11.967Z,14.57
2023-02-11T03:47:43.809Z,14.43
2023-02-11T03:50:15.852Z,16.13
2023-02-11T03:52:45.359Z,14.90
2023-02-11T03:55:17.018Z,15.07
2023-02-11T03:57:45.064Z,14.70
2023-02-11T04:00:14.568Z,14.60
2023-02-11T04:02:43.532Z,15.40
2023-02-11T04:05:14.976Z,14.50
2023-02-11T04:07:43.427Z,15.00
2023-02-11T04:10:12.941Z,15.97
2023-02-11T04:12:40.928Z,15.87
2023-02-11T04:15:09.743Z,16.00
2023-02-11T04:17:37.994Z,15.03
2023-02-11T04:20:06.629Z,15.87
2023-02-11T04:22:37.159Z,16.23
2023-02-11T04:25:06.063Z,15.40
2023-02-11T04:27:33.990Z,16.30
2023-02-11T04:30:02.930Z,16.67
2023-02-11T04:32:30.875Z,16.87
2023-02-11T04:34:58.785Z,16.43
2023-02-11T04:37:26.713Z,16.30
2023-02-11T04:39:56.052Z,15.97
2023-02-11T04:42:24.220Z,17.40
2023-02-11T04:44:52.077Z,16.50
2023-02-11T04:47:20.023Z,17.57
2023-02-11T04:49:47.995Z,15.83
2023-02-11T04:52:15.878Z,17.43
2023-02-11T04:54:43.740Z,17.37
2023-02-11T04:57:13.133Z,17.50
2023-02-11T04:59:41.203Z,18.47
2023-02-11T05:02:09.401Z,18.47
2023-02-11T05:04:37.306Z,19.17
2023-02-11T05:07:05.246Z,19.23
2023-02-11T05:09:33.069Z,18.80
2023-02-11T05:12:00.910Z,20.00
2023-02-11T05:14:30.181Z,18.83
2023-02-11T05:16:58.002Z,19.47
2023-02-11T05:19:25.876Z,19.83
2023-02-11T05:22:02.484Z,19.97
2023-02-11T05:24:32.673Z,20.70
2023-02-11T05:27:00.687Z,21.17
2023-02-11T05:29:30.186Z,22.07
2023-02-11T05:32:00.137Z,21.03
2023-02-11T05:34:28.219Z,21.37
2023-02-11T05:36:56.209Z,21.57
2023-02-11T05:39:24.139Z,21.87
2023-02-11T05:41:51.985Z,22.17
2023-02-11T05:44:19.950Z,20.87
2023-02-11T05:46:49.468Z,22.13
2023-02-11T05:49:17.882Z,21.37
2023-02-11T05:51:45.721Z,20.80
2023-02-11T05:54:13.849Z,21.37
2023-02-11T05:56:44.641Z,21.23
2023-02-11T05:59:14.455Z,21.80
2023-02-11T06:01:43.135Z,21.63
2023-02-11T06:04:12.844Z,21.87
2023-02-11T06:06:40.641Z,22.33
2023-02-11T06:09:08.516Z,21.27
2023-02-11T06:11:36.452Z,20.93
2023-02-11T06:14:04.501Z,21.37
2023-02-11T06:16:32.559Z,20.90
2023-02-11T06:19:00.422Z,20.03
2023-02-11T06:21:42.902Z,19.37
2023-02-11T06:24:11.873Z,19.50
2023-02-11T06:26:39.820Z,19.27
2023-02-11T06:29:07.987Z,19.50
2023-02-11T06:31:36.026Z,19.33
2023-02-11T06:34:05.002Z,19.47
2023-02-11T06:36:34.754Z,19.53
2023-02-11T06:39:02.682Z,19.13
2023-02-11T06:41:30.645Z,19.83
2023-02-11T06:43:58.596Z,19.77
2023-02-11T06:46:26.714Z,19.40
2023-02-11T06:48:54.757Z,19.70
2023-02-11T06:51:22.884Z,20.30
2023-02-11T06:53:52.489Z,18.93
2023-02-11T06:56:23.166Z,20.60
2023-02-11T06:58:54.684Z,19.90
2023-02-11T07:01:22.930Z,19.83
2023-02-11T07:03:51.822Z,19.43
2023-02-11T07:06:22.825Z,18.87
2023-02-11T07:08:52.204Z,18.90
2023-02-11T07:11:24.286Z,19.67
2023-02-11T07:13:52.814Z,18.57
2023-02-11T07:16:20.940Z,20.37
2023-02-11T07:18:49.992Z,19.03
2023-02-11T07:21:20.723Z,18.97
2023-02-11T07:23:49.516Z,19.43
2023-02-11T07:26:21.352Z,20.33
2023-02-11T07:28:49.610Z,20.20
2023-02-11T07:31:20.043Z,19.10
2023-02-11T07:33:48.138Z,19.80
2023-02-11T07:36:17.742Z,19.53
2023-02-11T07:38:45.759Z,21.17
2023-02-11T07:41:15.233Z,19.73
2023-02-11T07:43:45.823Z,18.77
2023-02-11T07:46:15.641Z,19.30
2023-02-11T07:48:43.929Z,19.27
2023-02-11T07:51:13.721Z,20.00
2023-02-11T07:53:41.942Z,21.40
2023-02-11T07:56:11.614Z,19.80
2023-02-11T07:58:42.164Z,20.20
2023-02-11T08:01:14.316Z,20.07
2023-02-11T08:03:43.271Z,21.23
2023-02-11T08:06:13.248Z,19.73
2023-02-11T08:08:41.495Z,20.57
2023-02-11T08:11:10.685Z,19.77
2023-02-11T08:13:39.204Z,20.60
2023-02-11T08:16:08.157Z,21.40
2023-02-11T08:18:37.886Z,20.13
2023-02-11T08:21:06.969Z,21.17
2023-02-11T08:23:35.275Z,21.17
2023-02-11T08:26:03.947Z,21.53
2023-02-11T08:28:33.320Z,22.03
2023-02-11T08:31:07.181Z,20.53
2023-02-11T08:33:35.890Z,23.03
2023-02-11T08:36:10.239Z,21.77
2023-02-11T08:38:38.489Z,21.83
2023-02-11T08:41:06.690Z,21.67
2023-02-11T08:43:35.035Z,22.53
2023-02-11T08:46:03.812Z,22.87
2023-02-11T08:48:31.790Z,22.50
2023-02-11T08:50:59.878Z,22.17
2023-02-11T08:53:29.231Z,21.93
2023-02-11T08:55:58.146Z,23.13
2023-02-11T08:58:26.298Z,22.10
2023-02-11T09:00:54.633Z,22.13
2023-02-11T09:03:22.886Z,21.90
2023-02-11T09:05:53.219Z,22.07
2023-02-11T09:08:21.723Z,21.70
2023-02-11T09:10:51.498Z,22.77
2023-02-11T09:13:19.477Z,22.33
2023-02-11T09:15:47.945Z,21.70
2023-02-11T09:18:15.962Z,21.63
2023-02-11T09:20:43.859Z,21.70
2023-02-11T09:23:12.491Z,21.97
2023-02-11T09:25:41.285Z,22.73
2023-02-11T09:28:12.430Z,22.53
2023-02-11T09:30:43.542Z,22.70
2023-02-11T09:33:11.512Z,22.47
2023-02-11T09:35:39.479Z,22.60
2023-02-11T09:38:07.500Z,23.37
2023-02-11T09:40:35.441Z,22.93
2023-02-11T09:43:08.895Z,22.47
2023-02-11T09:45:38.541Z,22.83
2023-02-11T09:48:14.956Z,23.63
2023-02-11T09:50:45.474Z,22.23
2023-02-11T09:53:19.381Z,23.87
2023-02-11T09:55:49.369Z,24.17
2023-02-11T09:58:27.530Z,24.03
2023-02-11T10:01:06.873Z,23.97
2023-02-11T10:03:54.861Z,23.33
2023-02-11T10:06:37.792Z,22.57
2023-02-11T10:09:19.930Z,23.07
2023-02-11T10:11:59.928Z,22.43
2023-02-11T10:14:46.589Z,23.50
2023-02-11T10:17:27.236Z,24.33
2023-02-11T10:20:07.653Z,23.00
2023-02-11T10:22:42.643Z,23.60
2023-02-11T10:25:21.222Z,23.10
2023-02-11T10:27:49.946Z,22.53
2023-02-11T10:30:26.331Z,24.13
2023-02-11T10:33:01.888Z,24.33
2023-02-11T10:35:29.912Z,20.50
2023-02-11T10:37:58.105Z,23.97
2023-02-11T10:40:28.333Z,23.50
2023-02-11T10:42:59.155Z,25.60
2023-02-11T10:45:31.665Z,25.50
2023-02-11T10:48:02.238Z,23.93
2023-02-11T10:50:33.437Z,24.83
2023-02-11T10:53:14.619Z,24.80
2023-02-11T10:55:51.697Z,24.97
2023-02-11T10:58:26.881Z,25.80
2023-02-11T11:00:56.902Z,24.90
2023-02-11T11:03:28.581Z,25.73
2023-02-11T11:05:58.858Z,25.50
2023-02-11T11:08:40.784Z,23.87
2023-02-11T11:11:10.692Z,24.43
2023-02-11T11:13:40.560Z,25.77
2023-02-11T11:16:18.276Z,25.23
2023-02-11T11:18:49.164Z,24.90
2023-02-11T11:21:21.181Z,25.07
2023-02-11T11:23:52.706Z,25.97
2023-02-11T11:26:21.218Z,25.10
2023-02-11T11:28:57.041Z,25.13
2023-02-11T11:31:27.823Z,25.80
2023-02-11T11:33:59.655Z,25.57
2023-02-11T11:36:35.928Z,26.97
2023-02-11T11:39:18.016Z,25.27
2023-02-11T11:41:52.753Z,25.47
2023-02-11T11:44:27.738Z,25.47
2023-02-11T11:47:21.325Z,24.83
2023-02-11T11:50:06.693Z,25.23
2023-02-11T11:52:41.189Z,26.57
2023-02-11T11:55:18.702Z,25.43
2023-02-11T11:57:46.783Z,26.43
2023-02-11T12:00:21.034Z,25.90
2023-02-11T12:03:36.897Z,25.33
2023-02-11T12:06:22.918Z,25.23
2023-02-11T12:09:02.909Z,26.53
2023-02-11T12:11:39.576Z,26.60
2023-02-11T12:14:25.039Z,24.73
2023-02-11T12:17:02.431Z,24.47
2023-02-11T12:19:54.941Z,26.40
2023-02-11T12:22:35.801Z,25.63
2023-02-11T12:25:21.418Z,25.40
2023-02-11T12:27:57.475Z,27.17
2023-02-11T12:30:45.628Z,26.40
2023-02-11T12:33:24.606Z,27.13
2023-02-11T12:36:00.333Z,27.53
2023-02-11T12:38:44.946Z,26.13
2023-02-11T12:41:43.581Z,27.27
2023-02-11T12:44:20.872Z,28.07
2023-02-11T12:46:55.677Z,25.80
2023-02-11T12:49:37.693Z,26.50
2023-02-11T12:52:32.376Z,27.87
2023-02-11T12:55:05.982Z,26.90
2023-02-11T12:57:37.382Z,28.60
2023-02-11T13:00:14.447Z,26.13
2023-02-11T13:02:48.539Z,28.03
2023-02-11T13:05:26.769Z,26.37
2023-02-11T13:08:01.018Z,26.47
2023-02-11T13:10:35.843Z,27.40
2023-02-11T13:13:18.608Z,26.53
2023-02-11T13:15:51.124Z,26.37
2023-02-11T13:18:28.201Z,27.70
2023-02-11T13:21:03.826Z,27.53
2023-02-11T13:23:41.929Z,28.17
2023-02-11T13:26:18.574Z,28.07
2023-02-11T13:28:53.206Z,26.83
2023-02-11T13:31:21.287Z,29.50
2023-02-11T13:33:49.989Z,26.97
2023-02-11T13:36:20.691Z,27.30
2023-02-11T13:39:07.831Z,27.23
2023-02-11T13:41:40.947Z,28.77
2023-02-11T13:44:27.578Z,29.00
2023-02-11T13:46:59.714Z,27.47
2023-02-11T13:49:32.482Z,25.93
2023-02-11T13:52:02.790Z,26.33
2023-02-11T13:54:35.056Z,28.80
2023-02-11T13:57:33.733Z,29.27
2023-02-11T14:00:09.556Z,29.97
2023-02-11T14:02:56.271Z,28.50
2023-02-11T14:05:47.944Z,29.33
2023-02-11T14:08:49.243Z,26.77
2023-02-11T14:11:44.863Z,30.23
2023-02-11T14:14:21.871Z,29.03
2023-02-11T14:17:31.008Z,29.17
2023-02-11T14:20:00.238Z,28.63
2023-02-11T14:22:30.265Z,29.60
2023-02-11T14:25:00.882Z,28.20
2023-02-11T14:27:33.058Z,29.47
2023-02-11T14:30:21.390Z,29.17
2023-02-11T14:33:10.236Z,29.13
2023-02-11T14:35:49.071Z,28.77
2023-02-11T14:38:25.187Z,28.50
2023-02-11T14:40:59.698Z,27.77
2023-02-11T14:43:32.228Z,28.67
2023-02-11T14:46:03.904Z,27.07
2023-02-11T14:48:35.365Z,30.60
2023-02-11T14:51:07.735Z,30.70
2023-02-11T14:53:37.544Z,30.40
2023-02-11T14:56:19.493Z,28.67
2023-02-11T14:58:48.471Z,28.93
2023-02-11T15:01:31.982Z,27.27
2023-02-11T15:04:01.286Z,29.37
2023-02-11T15:06:32.773Z,28.00
2023-02-11T15:09:03.802Z,28.07
2023-02-11T15:11:35.013Z,27.47
2023-02-11T15:14:10.812Z,27.23
2023-02-11T15:16:45.947Z,29.47
2023-02-11T15:19:22.526Z,28.13
2023-02-11T15:21:51.939Z,27.27
2023-02-11T15:24:25.536Z,27.13
2023-02-11T15:27:01.901Z,28.57
2023-02-11T15:29:38.045Z,27.90
2023-02-11T15:32:14.763Z,27.50
2023-02-11T15:34:42.881Z,27.77
2023-02-11T15:37:14.305Z,28.10
2023-02-11T15:39:43.263Z,28.07
2023-02-11T15:42:19.286Z,29.03
2023-02-11T15:44:56.398Z,28.33
2023-02-11T15:47:26.298Z,29.37
2023-02-11T15:49:56.831Z,29.23
2023-02-11T15:52:27.499Z,29.07
2023-02-11T15:54:59.538Z,29.23
2023-02-11T15:57:27.744Z,29.40
2023-02-11T15:59:56.791Z,29.73
2023-02-11T16:02:32.488Z,28.37
2023-02-11T16:05:03.480Z,28.60
2023-02-11T16:07:43.464Z,28.73
2023-02-11T16:10:23.304Z,28.00
2023-02-11T16:12:57.323Z,28.23
2023-02-11T16:15:43.432Z,27.87
2023-02-11T16:18:37.890Z,26.07
2023-02-11T16:21:13.517Z,27.40
2023-02-11T16:23:43.220Z,26.50
2023-02-11T16:26:21.724Z,27.70
2023-02-11T16:28:50.218Z,27.53
2023-02-11T16:31:18.577Z,27.53
2023-02-11T16:33:48.171Z,27.73
2023-02-11T16:36:18.237Z,27.77
2023-02-11T16:38:46.319Z,29.73
2023-02-11T16:41:14.390Z,31.80
2023-02-11T16:43:42.211Z,28.87
2023-02-11T16:46:15.347Z,29.20
2023-02-11T16:48:43.505Z,30.17
2023-02-11T16:51:13.673Z,30.27
2023-02-11T16:53:41.741Z,29.33
2023-02-11T16:56:15.409Z,30.50
2023-02-11T16:58:43.468Z,29.63
2023-02-11T17:01:14.100Z,30.67
2023-02-11T17:03:43.636Z,28.63
2023-02-11T17:06:15.118Z,29.70
2023-02-11T17:08:43.053Z,31.70
2023-02-11T17:11:11.055Z,29.30
2023-02-11T17:13:39.553Z,30.63
2023-02-11T17:16:12.382Z,29.93
2023-02-11T17:18:40.316Z,30.17
2023-02-11T17:21:08.764Z,28.63
2023-02-11T17:23:38.678Z,28.50
2023-02-11T17:26:07.638Z,29.40
2023-02-11T17:28:35.873Z,30.53
2023-02-11T17:31:08.842Z,32.33
2023-02-11T17:33:37.818Z,29.43
2023-02-11T17:36:07.719Z,30.13
2023-02-11T17:38:35.804Z,30.83
2023-02-11T17:41:06.120Z,31.40
2023-02-11T17:43:34.073Z,29.87
2023-02-11T17:46:02.087Z,29.33
2023-02-11T17:48:30.007Z,31.00
2023-02-11T17:50:57.926Z,32.37
2023-02-11T17:53:25.792Z,30.37
2023-02-11T17:55:55.971Z,30.37
2023-02-11T17:58:25.409Z,31.10
2023-02-11T18:00:53.342Z,30.90
2023-02-11T18:03:21.277Z,30.00
2023-02-11T18:05:49.680Z,31.67
2023-02-11T18:08:17.859Z,31.57
2023-02-11T18:10:46.269Z,32.50
2023-02-11T18:13:14.285Z,32.77
2023-02-11T18:15:44.016Z,31.07
2023-02-11T18:18:11.983Z,31.83
2023-02-11T18:20:40.627Z,30.60
2023-02-11T18:23:08.637Z,31.10
2023-02-11T18:25:36.578Z,31.17
2023-02-11T18:28:04.670Z,33.37
2023-02-11T18:30:35.749Z,31.63
2023-02-11T18:33:08.817Z,31.60
2023-02-11T18:35:38.768Z,31.33
2023-02-11T18:38:06.680Z,32.13
2023-02-11T18:40:35.465Z,32.33
2023-02-11T18:43:03.408Z,31.47
2023-02-11T18:45:31.459Z,33.63
2023-02-11T18:48:01.571Z,33.03
2023-02-11T18:50:31.024Z,32.80
2023-02-11T18:52:59.120Z,34.23
2023-02-11T18:55:27.260Z,33.53
2023-02-11T18:57:55.245Z,31.60
2023-02-11T19:00:23.746Z,32.97
2023-02-11T19:02:53.004Z,32.50
2023-02-11T19:05:21.592Z,34.43
2023-02-11T19:07:50.988Z,33.30
2023-02-11T19:10:19.156Z,34.63
2023-02-11T19:12:47.047Z,34.23
2023-02-11T19:15:16.071Z,34.17
2023-02-11T19:17:44.237Z,33.50
2023-02-11T19:20:12.488Z,33.83
2023-02-11T19:22:40.462Z,34.63
2023-02-11T19:25:11.019Z,35.10
2023-02-11T19:27:41.883Z,56.27
2023-02-11T19:30:11.240Z,37.57
2023-02-11T19:32:39.086Z,34.97
2023-02-11T19:35:07.744Z,35.53
2023-02-11T19:37:35.767Z,33.23
2023-02-11T19:40:03.683Z,37.23
2023-02-11T19:42:32.942Z,36.20
2023-02-11T19:45:00.848Z,35.50
2023-02-11T19:47:28.724Z,36.97
2023-02-11T19:49:56.949Z,34.70
2023-02-11T19:52:24.834Z,35.13
2023-02-11T19:54:53.037Z,35.80
2023-02-11T19:57:21.053Z,35.90
2023-02-11T19:59:50.944Z,37.10
2023-02-11T20:02:18.848Z,34.40
2023-02-11T20:04:46.988Z,36.30
2023-02-11T20:07:14.884Z,35.37
2023-02-11T20:09:43.066Z,35.97
2023-02-11T20:12:12.067Z,33.87
2023-02-11T20:14:39.959Z,36.33
2023-02-11T20:17:09.646Z,34.63
2023-02-11T20:19:37.627Z,33.80
2023-02-11T20:22:05.570Z,34.60
2023-02-11T20:24:33.514Z,33.90
2023-02-11T20:27:01.369Z,38.10
2023-02-11T20:29:31.157Z,36.57
2023-02-11T20:31:59.318Z,35.63
2023-02-11T20:34:29.467Z,37.70
2023-02-11T20:36:57.409Z,36.07
2023-02-11T20:39:26.965Z,39.00
2023-02-11T20:41:56.534Z,36.00
2023-02-11T20:44:24.689Z,36.50
2023-02-11T20:46:54.057Z,36.60
2023-02-11T20:49:25.203Z,36.77
2023-02-11T20:51:55.674Z,43.67
2023-02-11T20:54:24.929Z,39.93
2023-02-11T20:56:53.890Z,36.63
2023-02-11T20:59:23.697Z,36.40
2023-02-11T21:01:55.392Z,35.60
2023-02-11T21:04:26.175Z,35.37
2023-02-11T21:06:58.600Z,35.33
2023-02-11T21:09:28.367Z,37.90
2023-02-11T21:11:56.942Z,37.37
2023-02-11T21:14:26.425Z,37.20
2023-02-11T21:16:54.287Z,35.17
2023-02-11T21:19:22.462Z,36.67
2023-02-11T21:21:50.467Z,36.03
2023-02-11T21:24:19.839Z,36.50
2023-02-11T21:26:47.747Z,36.77
2023-02-11T21:29:15.816Z,36.27
2023-02-11T21:31:43.821Z,36.77
2023-02-11T21:34:12.045Z,35.97
2023-02-11T21:36:40.267Z,35.63
2023-02-11T21:39:08.984Z,34.87
2023-02-11T21:41:38.287Z,37.93
2023-02-11T21:44:06.399Z,36.90
2023-02-11T21:46:34.232Z,38.03
2023-02-11T21:49:02.119Z,35.77
2023-02-11T21:51:30.509Z,35.67
2023-02-11T21:54:01.159Z,35.03
2023-02-11T21:56:30.178Z,37.07
2023-02-11T21:59:01.096Z,35.83
2023-02-11T22:01:31.878Z,36.33
2023-02-11T22:04:00.241Z,35.63
2023-02-11T22:06:31.324Z,36.40
2023-02-11T22:09:00.263Z,35.17
2023-02-11T22:11:28.183Z,35.47
2023-02-11T22:13:57.975Z,36.47
2023-02-11T22:16:28.499Z,35.67
2023-02-11T22:18:58.640Z,36.00
2023-02-11T22:21:27.390Z,35.80
2023-02-11T22:23:56.053Z,36.87
2023-02-11T22:26:25.619Z,35.53
2023-02-11T22:28:54.913Z,35.00
2023-02-11T22:31:25.145Z,36.37
2023-02-11T22:33:54.572Z,34.97
2023-02-11T22:36:24.337Z,35.93
2023-02-11T22:38:53.052Z,37.23
2023-02-11T22:41:21.664Z,35.23
2023-02-11T22:43:49.872Z,35.93
2023-02-11T22:46:20.102Z,36.13
2023-02-11T22:48:48.870Z,36.10
2023-02-11T22:51:20.450Z,33.83
2023-02-11T22:53:53.139Z,36.03
2023-02-11T22:56:22.082Z,33.70
2023-02-11T22:58:50.745Z,36.13
2023-02-11T23:01:19.053Z,35.43
2023-02-11T23:03:47.210Z,35.70
2023-02-11T23:06:15.647Z,34.70
2023-02-11T23:08:45.451Z,36.57
2023-02-11T23:11:15.982Z,33.17
2023-02-11T23:13:45.060Z,35.93
2023-02-11T23:16:15.714Z,34.90
2023-02-11T23:18:45.063Z,34.47
2023-02-11T23:21:16.903Z,35.57
2023-02-11T23:23:46.898Z,35.60
2023-02-11T23:26:17.529Z,34.03
2023-02-11T23:28:46.256Z,35.03
2023-02-11T23:31:19.452Z,35.23
2023-02-11T23:33:48.417Z,35.00
2023-02-11T23:36:17.218Z,34.10
2023-02-11T23:38:46.799Z,34.80
2023-02-11T23:41:15.249Z,36.47
2023-02-11T23:43:43.691Z,35.77
2023-02-11T23:46:12.188Z,34.57
2023-02-11T23:48:40.515Z,34.67
2023-02-11T23:51:09.712Z,34.07
2023-02-11T23:53:38.127Z,33.27
2023-02-11T23:56:10.373Z,33.73
2023-02-11T23:58:38.355Z,34.30
